createdAt,value
2023-04-07T00:01:01.492Z,94.24
2023-04-07T00:07:57.585Z,93.93
2023-04-07T00:13:21.014Z,94.70
2023-04-07T00:14:49.052Z,94.85
2023-04-07T00:18:21.043Z,94.90
2023-04-07T00:20:11.805Z,95.31
2023-04-07T00:25:26.430Z,94.30
2023-04-07T00:31:57.135Z,94.34
2023-04-07T00:36:43.169Z,94.45
2023-04-07T00:38:46.944Z,94.24
2023-04-07T00:40:18.098Z,94.34
2023-04-07T00:41:46.669Z,94.65
2023-04-07T00:49:16.223Z,94.65
2023-04-07T00:52:08.607Z,94.76
2023-04-07T00:53:36.988Z,94.51
2023-04-07T00:55:08.840Z,94.65
2023-04-07T00:59:02.530Z,95.37
2023-04-07T01:00:32.202Z,94.92
2023-04-07T01:02:51.013Z,94.61
2023-04-07T01:04:22.756Z,94.96
2023-04-07T01:13:04.868Z,95.37
2023-04-07T01:14:53.919Z,95.37
2023-04-07T01:17:43.314Z,95.06
2023-04-07T01:19:35.570Z,95.12
2023-04-07T01:20:44.073Z,94.92
2023-04-07T01:25:01.552Z,94.96
2023-04-07T01:30:09.498Z,94.96
2023-04-07T01:33:48.322Z,95.37
2023-04-07T01:35:17.304Z,95.17
2023-04-07T01:39:51.176Z,95.12
2023-04-07T01:41:24.400Z,95.02
2023-04-07T01:45:58.826Z,95.27
2023-04-07T01:48:51.691Z,95.47
2023-04-07T01:55:00.700Z,95.17
2023-04-07T01:56:00.678Z,95.47
2023-04-07T01:57:00.664Z,95.23
2023-04-07T01:59:05.173Z,94.92
2023-04-07T02:00:37.172Z,95.02
2023-04-07T02:06:12.192Z,94.71
2023-04-07T02:10:33.775Z,95.17
2023-04-07T02:15:23.409Z,95.02
2023-04-07T02:17:25.090Z,95.12
2023-04-07T02:18:56.393Z,95.02
2023-04-07T02:32:40.428Z,95.12
2023-04-07T02:39:08.617Z,95.23
2023-04-07T02:48:03.572Z,94.71
2023-04-07T02:51:55.422Z,94.92
2023-04-07T03:06:13.598Z,94.15
2023-04-07T03:08:18.828Z,94.05
2023-04-07T03:13:16.246Z,93.74
2023-04-07T03:15:35.897Z,93.64
2023-04-07T03:17:04.163Z,93.54
2023-04-07T03:19:23.969Z,93.23
2023-04-07T03:21:14.632Z,93.33
2023-04-07T03:23:48.058Z,93.23
2023-04-07T03:27:37.343Z,93.44
2023-04-07T03:30:10.100Z,93.33
2023-04-07T03:33:32.298Z,93.23
2023-04-07T03:36:06.103Z,93.64
2023-04-07T03:40:11.989Z,93.74
2023-04-07T03:42:31.515Z,93.74
2023-04-07T03:44:20.212Z,93.33
2023-04-07T03:47:55.720Z,93.13
2023-04-07T03:51:07.748Z,93.13
2023-04-07T04:00:41.085Z,93.13
2023-04-07T04:03:12.526Z,93.13
2023-04-07T04:08:13.221Z,92.82
2023-04-07T04:10:51.284Z,93.02
2023-04-07T04:14:10.076Z,93.13
2023-04-07T04:20:11.157Z,93.13
2023-04-07T04:22:12.883Z,93.13
2023-04-07T04:23:42.786Z,92.93
2023-04-07T04:27:46.065Z,92.82
2023-04-07T04:29:34.719Z,92.72
2023-04-07T04:31:05.181Z,92.72
2023-04-07T04:34:34.535Z,93.02
2023-04-07T04:36:07.023Z,93.13
2023-04-07T04:38:51.560Z,92.93
2023-04-07T04:41:39.413Z,92.68
2023-04-07T04:43:28.560Z,92.47
2023-04-07T04:44:57.513Z,92.36
2023-04-07T04:51:45.270Z,92.51
2023-04-07T04:58:09.690Z,92.36
2023-04-07T05:00:29.446Z,92.27
2023-04-07T05:02:01.399Z,92.16
2023-04-07T05:06:26.154Z,92.16
2023-04-07T05:12:22.513Z,92.41
2023-04-07T05:14:21.857Z,92.61
2023-04-07T05:16:51.766Z,92.82
2023-04-07T05:18:53.593Z,92.61
2023-04-07T05:20:40.845Z,92.61
2023-04-07T05:23:00.922Z,92.51
2023-04-07T05:24:51.839Z,92.61
2023-04-07T05:29:39.136Z,93.23
2023-04-07T05:32:00.767Z,93.07
2023-04-07T05:33:31.089Z,93.48
2023-04-07T05:35:31.895Z,93.59
2023-04-07T05:38:59.730Z,93.38
2023-04-07T05:44:45.606Z,93.54
2023-04-07T05:52:52.789Z,93.23
2023-04-07T05:54:22.962Z,93.13
2023-04-07T05:57:50.915Z,92.88
2023-04-07T06:06:39.094Z,92.78
2023-04-07T06:09:37.074Z,92.68
2023-04-07T06:13:00.773Z,92.47
2023-04-07T06:16:07.951Z,92.32
2023-04-07T06:17:37.118Z,92.32
2023-04-07T06:19:06.967Z,92.22
2023-04-07T06:22:21.746Z,92.47
2023-04-07T06:24:21.464Z,92.47
2023-04-07T06:33:03.379Z,91.82
2023-04-07T06:35:33.315Z,91.91
2023-04-07T06:38:15.235Z,91.82
2023-04-07T06:41:05.753Z,92.02
2023-04-07T06:47:40.379Z,92.43
2023-04-07T06:51:33.723Z,92.18
2023-04-07T06:58:12.347Z,92.18
2023-04-07T07:01:21.546Z,92.22
2023-04-07T07:03:49.490Z,92.43
2023-04-07T07:09:31.956Z,92.08
2023-04-07T07:11:02.576Z,91.87
2023-04-07T07:12:29.869Z,91.67
2023-04-07T07:20:46.928Z,91.36
2023-04-07T07:22:48.339Z,91.36
2023-04-07T07:24:16.199Z,91.22
2023-04-07T07:26:14.408Z,91.11
2023-04-07T07:28:13.587Z,91.16
2023-04-07T07:31:31.722Z,91.11
2023-04-07T07:41:33.832Z,90.81
2023-04-07T07:43:33.538Z,90.50
2023-04-07T07:45:49.704Z,90.56
2023-04-07T07:47:22.298Z,90.45
2023-04-07T07:48:51.828Z,90.31
2023-04-07T07:50:20.574Z,90.11
2023-04-07T07:54:30.301Z,89.70
2023-04-07T07:56:26.045Z,89.59
2023-04-07T07:59:16.695Z,89.80
2023-04-07T08:01:34.433Z,89.50
2023-04-07T08:05:08.120Z,89.39
2023-04-07T08:10:02.520Z,89.23
2023-04-07T08:14:40.392Z,89.43
2023-04-07T08:16:08.517Z,89.43
2023-04-07T08:19:57.569Z,89.33
2023-04-07T08:21:28.448Z,89.12
2023-04-07T08:22:26.480Z,89.23
2023-04-07T08:23:26.535Z,89.23
2023-04-07T08:24:56.498Z,89.03
2023-04-07T08:26:26.409Z,89.23
2023-04-07T08:28:44.393Z,89.33
2023-04-07T08:31:43.510Z,88.92
2023-04-07T08:34:01.909Z,89.03
2023-04-07T08:39:16.691Z,88.78
2023-04-07T08:40:48.595Z,88.71
2023-04-07T08:42:16.543Z,88.92
2023-04-07T08:44:09.406Z,88.88
2023-04-07T08:45:39.293Z,88.47
2023-04-07T08:47:39.560Z,88.68
2023-04-07T08:49:09.356Z,88.68
2023-04-07T08:50:40.972Z,88.57
2023-04-07T08:53:36.979Z,88.06
2023-04-07T08:55:25.654Z,88.17
2023-04-07T08:59:16.363Z,87.96
2023-04-07T09:02:11.932Z,87.82
2023-04-07T09:06:48.926Z,87.41
2023-04-07T09:08:18.996Z,87.26
2023-04-07T09:11:50.341Z,87.16
2023-04-07T09:14:15.647Z,86.14
2023-04-07T09:16:14.506Z,86.65
2023-04-07T09:18:13.624Z,86.96
2023-04-07T09:19:45.293Z,86.91
2023-04-07T09:22:42.277Z,86.10
2023-04-07T09:29:59.664Z,86.00
2023-04-07T09:34:52.136Z,85.32
2023-04-07T09:40:16.782Z,85.73
2023-04-07T09:41:44.884Z,85.83
2023-04-07T09:43:15.131Z,85.94
2023-04-07T09:45:27.222Z,85.53
2023-04-07T09:46:49.132Z,85.83
2023-04-07T09:55:58.602Z,86.41
2023-04-07T09:59:37.991Z,86.00
2023-04-07T10:03:24.658Z,85.24
2023-04-07T10:05:54.813Z,84.63
2023-04-07T10:07:54.650Z,84.57
2023-04-07T10:12:05.944Z,84.42
2023-04-07T10:14:05.920Z,84.47
2023-04-07T10:16:03.176Z,84.16
2023-04-07T10:18:02.551Z,84.67
2023-04-07T10:20:44.501Z,84.57
2023-04-07T10:23:12.437Z,84.47
2023-04-07T10:26:32.233Z,84.77
2023-04-07T10:29:04.649Z,84.83
2023-04-07T10:35:16.002Z,84.06
2023-04-07T10:37:21.602Z,84.57
2023-04-07T10:39:09.176Z,84.53
2023-04-07T10:40:10.970Z,84.33
2023-04-07T10:41:09.154Z,84.33
2023-04-07T10:42:09.138Z,84.42
2023-04-07T10:47:21.886Z,84.47
2023-04-07T10:48:50.853Z,84.26
2023-04-07T10:52:19.421Z,84.57
2023-04-07T10:57:39.180Z,85.69
2023-04-07T10:59:08.625Z,85.59
2023-04-07T11:00:37.554Z,85.28
2023-04-07T11:07:20.476Z,85.73
2023-04-07T11:11:13.609Z,86.14
2023-04-07T11:14:05.285Z,85.94
2023-04-07T11:15:37.874Z,85.94
2023-04-07T11:17:05.020Z,86.14
2023-04-07T11:18:05.374Z,86.20
2023-04-07T11:22:53.235Z,85.49
2023-04-07T11:26:13.700Z,85.53
2023-04-07T11:28:08.784Z,85.49
2023-04-07T11:29:38.127Z,85.49
2023-04-07T11:31:55.708Z,85.49
2023-04-07T11:33:25.167Z,85.59
2023-04-07T11:35:44.199Z,85.38
2023-04-07T11:38:19.566Z,85.28
2023-04-07T11:40:12.753Z,85.28
2023-04-07T11:42:03.189Z,85.28
2023-04-07T11:45:19.627Z,85.38
2023-04-07T11:50:26.816Z,85.59
2023-04-07T11:53:46.085Z,85.89
2023-04-07T11:56:45.789Z,85.96
2023-04-07T11:58:15.942Z,85.75
2023-04-07T12:01:08.583Z,85.45
2023-04-07T12:03:56.861Z,85.00
2023-04-07T12:09:34.267Z,85.38
2023-04-07T12:14:59.186Z,85.55
2023-04-07T12:21:52.984Z,84.83
2023-04-07T12:27:35.892Z,85.00
2023-04-07T12:28:55.066Z,84.69
2023-04-07T12:30:42.631Z,85.06
2023-04-07T12:32:50.989Z,84.75
2023-04-07T12:35:29.892Z,84.20
2023-04-07T12:38:19.159Z,83.90
2023-04-07T12:40:39.262Z,82.51
2023-04-07T12:42:15.040Z,83.12
2023-04-07T12:47:14.353Z,82.31
2023-04-07T12:48:46.043Z,82.24
2023-04-07T12:50:17.977Z,82.24
2023-04-07T12:52:37.710Z,81.63
2023-04-07T12:55:50.517Z,82.24
2023-04-07T12:58:45.183Z,81.84
2023-04-07T13:00:14.112Z,81.02
2023-04-07T13:03:12.603Z,81.23
2023-04-07T13:05:39.309Z,81.84
2023-04-07T13:10:37.304Z,81.39
2023-04-07T13:12:55.498Z,81.49
2023-04-07T13:15:47.053Z,81.45
2023-04-07T13:20:00.283Z,80.40
2023-04-07T13:24:29.359Z,80.16
2023-04-07T13:26:50.870Z,79.64
2023-04-07T13:28:19.360Z,79.75
2023-04-07T13:29:48.726Z,79.07
2023-04-07T13:32:38.201Z,78.97
2023-04-07T13:40:00.378Z,78.22
2023-04-07T13:41:29.593Z,78.22
2023-04-07T13:48:55.659Z,77.20
2023-04-07T13:52:13.219Z,75.98
2023-04-07T13:53:42.160Z,76.79
2023-04-07T13:54:42.218Z,76.28
2023-04-07T13:55:42.116Z,76.39
2023-04-07T13:57:12.022Z,75.47
2023-04-07T14:07:02.435Z,76.04
2023-04-07T14:09:59.495Z,75.06
2023-04-07T14:14:14.395Z,74.96
2023-04-07T14:20:29.683Z,76.73
2023-04-07T14:26:37.572Z,76.42
2023-04-07T14:28:06.180Z,76.15
2023-04-07T14:30:24.044Z,76.56
2023-04-07T14:33:14.130Z,75.64
2023-04-07T14:41:33.899Z,74.99
2023-04-07T14:43:32.730Z,74.11
2023-04-07T14:46:00.626Z,74.49
2023-04-07T14:50:51.771Z,73.54
2023-04-07T14:52:19.537Z,73.54
2023-04-07T14:57:17.609Z,73.13
2023-04-07T14:58:46.588Z,73.54
2023-04-07T15:03:46.398Z,73.54
2023-04-07T15:06:15.456Z,73.60
2023-04-07T15:09:12.697Z,72.99
2023-04-07T15:15:08.926Z,73.30
2023-04-07T15:16:39.468Z,73.30
2023-04-07T15:19:56.644Z,72.58
2023-04-07T15:21:25.775Z,72.41
2023-04-07T15:23:24.589Z,72.92
2023-04-07T15:25:53.348Z,73.06
2023-04-07T15:28:51.168Z,72.21
2023-04-07T15:36:25.798Z,72.52
2023-04-07T15:37:53.663Z,71.91
2023-04-07T15:39:22.588Z,70.72
2023-04-07T15:42:22.627Z,71.06
2023-04-07T15:46:38.181Z,71.43
2023-04-07T15:48:07.111Z,71.23
2023-04-07T15:49:36.036Z,71.43
2023-04-07T15:50:35.969Z,71.50
2023-04-07T15:51:35.949Z,71.19
2023-04-07T15:53:06.023Z,71.84
2023-04-07T15:55:35.876Z,71.43
2023-04-07T15:57:04.839Z,71.53
2023-04-07T15:59:36.535Z,71.60
2023-04-07T16:02:50.729Z,71.43
2023-04-07T16:04:19.723Z,71.53
2023-04-07T16:07:15.356Z,71.60
2023-04-07T16:11:13.749Z,72.21
2023-04-07T16:13:12.177Z,71.56
2023-04-07T16:16:59.918Z,70.95
2023-04-07T16:18:28.156Z,71.26
2023-04-07T16:20:18.809Z,69.93
2023-04-07T16:24:44.216Z,70.92
2023-04-07T16:27:14.627Z,71.33
2023-04-07T16:29:13.951Z,70.82
2023-04-07T16:31:06.828Z,71.23
2023-04-07T16:33:05.658Z,70.92
2023-04-07T16:35:34.928Z,71.53
2023-04-07T16:37:25.801Z,70.72
2023-04-07T16:38:34.920Z,70.62
2023-04-07T16:41:03.282Z,70.31
2023-04-07T16:44:27.457Z,70.10
2023-04-07T16:48:13.113Z,70.31
2023-04-07T16:51:00.811Z,70.31
2023-04-07T16:54:19.420Z,70.21
2023-04-07T16:55:50.854Z,70.01
2023-04-07T16:57:18.355Z,70.01
2023-04-07T17:00:15.984Z,70.21
2023-04-07T17:01:45.917Z,70.31
2023-04-07T17:05:07.743Z,70.31
2023-04-07T17:06:41.775Z,70.31
2023-04-07T17:08:31.287Z,70.31
2023-04-07T17:10:33.286Z,70.62
2023-04-07T17:13:23.691Z,71.02
2023-04-07T17:19:31.086Z,71.23
2023-04-07T17:22:08.967Z,71.64
2023-04-07T17:23:40.781Z,71.23
2023-04-07T17:25:59.945Z,70.82
2023-04-07T17:27:28.901Z,70.92
2023-04-07T17:31:34.830Z,71.87
2023-04-07T17:33:38.040Z,72.08
2023-04-07T17:35:08.194Z,71.97
2023-04-07T17:36:39.017Z,72.17
2023-04-07T17:39:07.556Z,72.17
2023-04-07T17:40:36.156Z,72.17
2023-04-07T17:46:25.750Z,72.31
2023-04-07T17:50:14.120Z,72.21
2023-04-07T17:53:45.334Z,72.41
2023-04-07T17:55:32.254Z,72.41
2023-04-07T18:01:59.849Z,73.06
2023-04-07T18:04:50.056Z,73.50
2023-04-07T18:07:10.599Z,73.71
2023-04-07T18:08:40.941Z,73.71
2023-04-07T18:10:09.207Z,73.71
2023-04-07T18:13:09.638Z,73.91
2023-04-07T18:18:03.615Z,74.45
2023-04-07T18:20:34.581Z,74.76
2023-04-07T18:22:24.071Z,74.90
2023-04-07T18:23:53.832Z,75.10
2023-04-07T18:25:43.533Z,75.41
2023-04-07T18:32:33.124Z,75.75
2023-04-07T18:34:02.371Z,75.85
2023-04-07T18:36:01.325Z,75.95
2023-04-07T18:37:51.204Z,76.06
2023-04-07T18:39:20.059Z,76.19
2023-04-07T18:40:51.381Z,76.29
2023-04-07T18:42:09.974Z,76.29
2023-04-07T18:42:48.906Z,76.40
2023-04-07T18:43:49.162Z,76.40
2023-04-07T18:45:19.873Z,76.50
2023-04-07T18:47:19.627Z,76.70
2023-04-07T18:48:48.127Z,76.74
2023-04-07T18:50:48.995Z,76.84
2023-04-07T18:54:16.573Z,77.04
2023-04-07T19:00:56.740Z,77.59
2023-04-07T19:03:26.466Z,77.70
2023-04-07T19:06:34.408Z,77.80
2023-04-07T19:09:32.124Z,78.04
2023-04-07T19:13:49.363Z,78.34
2023-04-07T19:16:19.151Z,78.45
2023-04-07T19:18:50.901Z,78.55
2023-04-07T19:21:39.634Z,78.89
2023-04-07T19:24:26.698Z,79.10
2023-04-07T19:30:02.985Z,79.24
2023-04-07T19:32:52.200Z,79.34
2023-04-07T19:34:52.571Z,79.44
2023-04-07T19:39:28.846Z,79.79
2023-04-07T19:41:58.942Z,79.79
2023-04-07T19:44:17.794Z,79.79
2023-04-07T19:45:46.728Z,79.79
2023-04-07T19:48:43.566Z,79.82
2023-04-07T19:51:08.659Z,79.93
2023-04-07T20:00:06.278Z,80.68
2023-04-07T20:04:50.706Z,80.92
2023-04-07T20:06:17.758Z,81.02
2023-04-07T20:09:15.022Z,81.23
2023-04-07T20:10:44.356Z,81.27
2023-04-07T20:15:49.839Z,81.57
2023-04-07T20:17:15.957Z,81.68
2023-04-07T20:19:17.769Z,81.82
2023-04-07T20:21:49.510Z,81.92
2023-04-07T20:23:52.561Z,82.03
2023-04-07T20:26:51.580Z,82.13
2023-04-07T20:28:21.434Z,82.23
2023-04-07T20:30:33.428Z,82.33
2023-04-07T20:46:35.751Z,82.92
2023-04-07T20:48:05.684Z,82.92
2023-04-07T20:49:35.627Z,82.92
2023-04-07T20:53:29.521Z,83.03
2023-04-07T20:55:27.090Z,83.17
2023-04-07T20:57:28.535Z,83.27
2023-04-07T20:59:17.787Z,83.17
2023-04-07T21:00:46.846Z,83.17
2023-04-07T21:02:18.701Z,83.17
2023-04-07T21:08:27.567Z,83.51
2023-04-07T21:09:56.954Z,83.51
2023-04-07T21:12:25.884Z,83.62
2023-04-07T21:14:23.818Z,83.72
2023-04-07T21:16:12.519Z,83.62
2023-04-07T21:17:42.055Z,84.03
2023-04-07T21:19:11.576Z,84.03
2023-04-07T21:20:40.375Z,83.92
2023-04-07T21:24:27.877Z,84.07
2023-04-07T21:25:57.794Z,84.07
2023-04-07T21:26:57.779Z,84.07
2023-04-07T21:27:57.768Z,84.07
2023-04-07T21:28:57.812Z,84.07
2023-04-07T21:36:33.924Z,84.21
2023-04-07T21:40:03.446Z,84.21
2023-04-07T21:42:26.046Z,84.21
2023-04-07T21:43:54.910Z,84.21
2023-04-07T21:49:14.649Z,84.56
2023-04-07T21:53:00.492Z,84.66
2023-04-07T21:54:30.469Z,84.66
2023-04-07T21:57:18.297Z,84.66
2023-04-07T22:00:38.620Z,84.80
2023-04-07T22:03:47.179Z,84.80
2023-04-07T22:05:16.493Z,84.80
2023-04-07T22:07:14.083Z,84.91
2023-04-07T22:11:33.775Z,85.01
2023-04-07T22:13:03.728Z,85.01
2023-04-07T22:16:02.067Z,85.05
2023-04-07T22:20:39.338Z,84.94
2023-04-07T22:22:09.212Z,84.94
2023-04-07T22:23:38.063Z,84.94
2023-04-07T22:25:37.941Z,85.05
2023-04-07T22:27:07.378Z,84.94
2023-04-07T22:33:13.228Z,85.30
2023-04-07T22:36:10.847Z,85.30
2023-04-07T22:37:40.801Z,85.25
2023-04-07T22:40:11.779Z,85.46
2023-04-07T22:42:10.353Z,85.36
2023-04-07T22:48:20.719Z,85.77
2023-04-07T22:51:18.757Z,86.18
2023-04-07T22:56:05.821Z,86.60
2023-04-07T23:02:12.011Z,83.61
2023-04-07T23:06:41.191Z,80.47
2023-04-07T23:10:57.470Z,78.79
2023-04-07T23:12:25.567Z,78.58
2023-04-07T23:15:53.849Z,77.45
2023-04-07T23:22:38.046Z,75.77
2023-04-07T23:24:57.810Z,75.25
2023-04-07T23:30:14.572Z,74.74
2023-04-07T23:32:15.420Z,74.43
2023-04-07T23:33:45.436Z,74.22
2023-04-07T23:36:42.696Z,74.02
2023-04-07T23:38:12.707Z,73.74
2023-04-07T23:41:04.443Z,73.64
2023-04-07T23:44:40.710Z,73.43
2023-04-07T23:48:30.286Z,73.43
2023-04-07T23:50:04.716Z,73.13
2023-04-07T23:52:02.690Z,72.81
